sensor_id;sensor_type;location;lat;lon;timestamp;pressure;altitude;pressure_sealevel;temperature;humidity
60246;BME280;46107;53.356;-1.524;2023-05-27T00:02:04;100399.08;;;12.47;47.21
60246;BME280;46107;53.356;-1.524;2023-05-27T00:04:32;100395.53;;;13.02;46.24
60246;BME280;46107;53.356;-1.524;2023-05-27T00:06:59;100395.84;;;12.75;46.44
60246;BME280;46107;53.356;-1.524;2023-05-27T00:09:26;100393.99;;;12.67;46.21
60246;BME280;46107;53.356;-1.524;2023-05-27T00:11:54;100391.30;;;12.64;46.63
60246;BME280;46107;53.356;-1.524;2023-05-27T00:14:22;100391.85;;;13.24;45.29
60246;BME280;46107;53.356;-1.524;2023-05-27T00:16:50;100389.95;;;12.85;45.79
60246;BME280;46107;53.356;-1.524;2023-05-27T00:19:17;100390.98;;;12.79;45.99
60246;BME280;46107;53.356;-1.524;2023-05-27T00:21:45;100393.15;;;12.74;46.14
60246;BME280;46107;53.356;-1.524;2023-05-27T00:24:13;100392.59;;;12.64;45.48
60246;BME280;46107;53.356;-1.524;2023-05-27T00:26:41;100394.26;;;12.49;46.72
60246;BME280;46107;53.356;-1.524;2023-05-27T00:29:09;100393.00;;;12.41;45.29
60246;BME280;46107;53.356;-1.524;2023-05-27T00:31:37;100391.63;;;12.07;46.50
60246;BME280;46107;53.356;-1.524;2023-05-27T00:34:05;100389.90;;;12.19;45.87
60246;BME280;46107;53.356;-1.524;2023-05-27T00:36:32;100388.22;;;13.15;45.12
60246;BME280;46107;53.356;-1.524;2023-05-27T00:39:00;100388.80;;;13.34;45.02
60246;BME280;46107;53.356;-1.524;2023-05-27T00:41:28;100387.83;;;13.06;45.47
60246;BME280;46107;53.356;-1.524;2023-05-27T00:43:56;100384.59;;;12.40;45.95
60246;BME280;46107;53.356;-1.524;2023-05-27T00:46:24;100379.83;;;12.95;45.16
60246;BME280;46107;53.356;-1.524;2023-05-27T00:48:52;100375.70;;;12.42;45.38
60246;BME280;46107;53.356;-1.524;2023-05-27T00:51:19;100372.38;;;12.90;44.73
60246;BME280;46107;53.356;-1.524;2023-05-27T00:53:47;100366.59;;;11.78;46.71
60246;BME280;46107;53.356;-1.524;2023-05-27T00:56:14;100366.34;;;11.46;47.35
60246;BME280;46107;53.356;-1.524;2023-05-27T00:58:42;100361.97;;;11.68;46.81
60246;BME280;46107;53.356;-1.524;2023-05-27T01:01:10;100360.94;;;12.58;45.00
60246;BME280;46107;53.356;-1.524;2023-05-27T01:03:37;100361.61;;;12.42;44.83
60246;BME280;46107;53.356;-1.524;2023-05-27T01:06:14;100361.25;;;12.10;44.71
60246;BME280;46107;53.356;-1.524;2023-05-27T01:08:48;100355.92;;;12.08;45.86
60246;BME280;46107;53.356;-1.524;2023-05-27T01:11:23;100354.48;;;12.02;45.05
60246;BME280;46107;53.356;-1.524;2023-05-27T01:13:58;100351.20;;;12.02;45.01
60246;BME280;46107;53.356;-1.524;2023-05-27T01:16:28;100347.53;;;12.01;45.22
60246;BME280;46107;53.356;-1.524;2023-05-27T01:18:58;100346.96;;;12.21;44.40
60246;BME280;46107;53.356;-1.524;2023-05-27T01:21:30;100339.57;;;10.99;46.25
60246;BME280;46107;53.356;-1.524;2023-05-27T01:24:02;100331.46;;;11.72;45.69
60246;BME280;46107;53.356;-1.524;2023-05-27T01:26:31;100333.26;;;11.83;45.16
60246;BME280;46107;53.356;-1.524;2023-05-27T01:28:59;100335.75;;;12.20;44.59
60246;BME280;46107;53.356;-1.524;2023-05-27T01:31:34;100332.24;;;11.99;44.78
60246;BME280;46107;53.356;-1.524;2023-05-27T01:34:06;100328.44;;;12.30;43.92
60246;BME280;46107;53.356;-1.524;2023-05-27T01:36:50;100325.67;;;12.51;43.26
60246;BME280;46107;53.356;-1.524;2023-05-27T01:39:19;100320.13;;;12.45;43.46
60246;BME280;46107;53.356;-1.524;2023-05-27T01:41:47;100318.65;;;12.18;43.86
60246;BME280;46107;53.356;-1.524;2023-05-27T01:44:16;100316.41;;;12.31;44.48
60246;BME280;46107;53.356;-1.524;2023-05-27T01:46:45;100312.10;;;12.22;43.99
60246;BME280;46107;53.356;-1.524;2023-05-27T01:49:12;100307.26;;;12.74;42.33
60246;BME280;46107;53.356;-1.524;2023-05-27T01:51:41;100305.17;;;12.12;43.66
60246;BME280;46107;53.356;-1.524;2023-05-27T01:54:08;100304.42;;;12.04;44.45
60246;BME280;46107;53.356;-1.524;2023-05-27T01:56:35;100304.43;;;12.29;42.56
60246;BME280;46107;53.356;-1.524;2023-05-27T01:59:03;100302.73;;;11.96;44.14
60246;BME280;46107;53.356;-1.524;2023-05-27T02:01:31;100302.89;;;12.16;43.55
60246;BME280;46107;53.356;-1.524;2023-05-27T02:03:59;100300.02;;;11.90;43.73
60246;BME280;46107;53.356;-1.524;2023-05-27T02:06:26;100298.73;;;12.44;42.74
60246;BME280;46107;53.356;-1.524;2023-05-27T02:08:54;100297.06;;;12.47;43.04
60246;BME280;46107;53.356;-1.524;2023-05-27T02:11:22;100293.19;;;12.25;43.07
60246;BME280;46107;53.356;-1.524;2023-05-27T02:13:49;100290.85;;;12.51;43.58
60246;BME280;46107;53.356;-1.524;2023-05-27T02:16:17;100290.19;;;11.66;44.66
60246;BME280;46107;53.356;-1.524;2023-05-27T02:18:44;100286.81;;;12.59;43.38
60246;BME280;46107;53.356;-1.524;2023-05-27T02:21:11;100286.56;;;12.56;43.60
60246;BME280;46107;53.356;-1.524;2023-05-27T02:23:39;100284.96;;;12.55;43.43
60246;BME280;46107;53.356;-1.524;2023-05-27T02:26:08;100284.53;;;12.30;43.19
60246;BME280;46107;53.356;-1.524;2023-05-27T02:28:36;100286.88;;;12.38;43.00
60246;BME280;46107;53.356;-1.524;2023-05-27T02:31:04;100280.04;;;12.14;42.86
60246;BME280;46107;53.356;-1.524;2023-05-27T02:33:36;100280.00;;;12.58;42.54
60246;BME280;46107;53.356;-1.524;2023-05-27T02:36:05;100274.42;;;12.83;42.04
60246;BME280;46107;53.356;-1.524;2023-05-27T02:38:32;100272.92;;;12.58;41.76
60246;BME280;46107;53.356;-1.524;2023-05-27T02:41:00;100269.28;;;12.75;41.91
60246;BME280;46107;53.356;-1.524;2023-05-27T02:43:28;100264.65;;;12.22;41.91
60246;BME280;46107;53.356;-1.524;2023-05-27T02:45:57;100260.94;;;11.97;42.68
60246;BME280;46107;53.356;-1.524;2023-05-27T02:48:24;100258.10;;;12.42;42.22
60246;BME280;46107;53.356;-1.524;2023-05-27T02:50:51;100256.29;;;12.04;42.18
60246;BME280;46107;53.356;-1.524;2023-05-27T02:53:19;100254.21;;;11.81;42.75
60246;BME280;46107;53.356;-1.524;2023-05-27T02:55:46;100254.63;;;12.01;42.91
60246;BME280;46107;53.356;-1.524;2023-05-27T02:58:14;100252.74;;;11.92;42.50
60246;BME280;46107;53.356;-1.524;2023-05-27T03:00:41;100251.09;;;11.40;43.82
60246;BME280;46107;53.356;-1.524;2023-05-27T03:03:09;100250.95;;;11.65;43.72
60246;BME280;46107;53.356;-1.524;2023-05-27T03:05:36;100252.17;;;11.82;42.30
60246;BME280;46107;53.356;-1.524;2023-05-27T03:08:04;100249.97;;;11.72;42.99
60246;BME280;46107;53.356;-1.524;2023-05-27T03:10:33;100249.58;;;11.52;42.66
60246;BME280;46107;53.356;-1.524;2023-05-27T03:13:01;100249.37;;;11.93;42.16
60246;BME280;46107;53.356;-1.524;2023-05-27T03:15:28;100249.40;;;11.34;42.52
60246;BME280;46107;53.356;-1.524;2023-05-27T03:17:56;100246.72;;;11.94;42.92
60246;BME280;46107;53.356;-1.524;2023-05-27T03:20:25;100242.23;;;11.64;42.23
60246;BME280;46107;53.356;-1.524;2023-05-27T03:22:52;100244.64;;;12.05;41.65
60246;BME280;46107;53.356;-1.524;2023-05-27T03:25:20;100243.47;;;11.78;41.69
60246;BME280;46107;53.356;-1.524;2023-05-27T03:27:48;100239.91;;;12.19;41.28
60246;BME280;46107;53.356;-1.524;2023-05-27T03:30:15;100241.25;;;11.82;41.55
60246;BME280;46107;53.356;-1.524;2023-05-27T03:32:43;100242.49;;;11.28;42.50
60246;BME280;46107;53.356;-1.524;2023-05-27T03:35:11;100240.33;;;11.92;41.30
60246;BME280;46107;53.356;-1.524;2023-05-27T03:37:39;100233.72;;;11.58;41.34
60246;BME280;46107;53.356;-1.524;2023-05-27T03:40:07;100232.09;;;11.81;42.06
60246;BME280;46107;53.356;-1.524;2023-05-27T03:42:35;100226.33;;;11.58;41.36
60246;BME280;46107;53.356;-1.524;2023-05-27T03:45:03;100231.41;;;12.34;40.69
60246;BME280;46107;53.356;-1.524;2023-05-27T03:47:30;100230.73;;;11.72;40.66
60246;BME280;46107;53.356;-1.524;2023-05-27T03:49:58;100229.39;;;12.05;40.35
60246;BME280;46107;53.356;-1.524;2023-05-27T03:52:26;100228.99;;;11.99;40.25
60246;BME280;46107;53.356;-1.524;2023-05-27T03:54:54;100230.07;;;12.39;40.50
60246;BME280;46107;53.356;-1.524;2023-05-27T03:57:21;100225.38;;;12.47;40.41
60246;BME280;46107;53.356;-1.524;2023-05-27T03:59:49;100223.76;;;12.16;40.23
60246;BME280;46107;53.356;-1.524;2023-05-27T04:02:16;100221.78;;;12.25;40.00
60246;BME280;46107;53.356;-1.524;2023-05-27T04:04:43;100219.40;;;11.98;40.39
60246;BME280;46107;53.356;-1.524;2023-05-27T04:07:11;100218.39;;;11.64;41.61
60246;BME280;46107;53.356;-1.524;2023-05-27T04:09:39;100217.65;;;12.25;40.57
60246;BME280;46107;53.356;-1.524;2023-05-27T04:12:07;100217.52;;;12.27;40.11
60246;BME280;46107;53.356;-1.524;2023-05-27T04:14:35;100215.79;;;12.47;40.54
60246;BME280;46107;53.356;-1.524;2023-05-27T04:17:03;100213.95;;;12.09;40.22
60246;BME280;46107;53.356;-1.524;2023-05-27T04:19:31;100206.36;;;12.98;39.01
60246;BME280;46107;53.356;-1.524;2023-05-27T04:21:59;100212.78;;;11.97;39.87
60246;BME280;46107;53.356;-1.524;2023-05-27T04:24:26;100211.04;;;12.46;39.88
60246;BME280;46107;53.356;-1.524;2023-05-27T04:26:54;100212.71;;;12.04;40.06
60246;BME280;46107;53.356;-1.524;2023-05-27T04:29:21;100209.64;;;12.60;39.15
60246;BME280;46107;53.356;-1.524;2023-05-27T04:31:49;100211.32;;;12.44;39.46
60246;BME280;46107;53.356;-1.524;2023-05-27T04:34:17;100204.60;;;12.53;39.12
60246;BME280;46107;53.356;-1.524;2023-05-27T04:36:45;100200.63;;;12.53;39.21
60246;BME280;46107;53.356;-1.524;2023-05-27T04:39:12;100199.92;;;12.61;39.16
60246;BME280;46107;53.356;-1.524;2023-05-27T04:41:39;100202.01;;;13.25;38.49
60246;BME280;46107;53.356;-1.524;2023-05-27T04:44:07;100208.08;;;12.16;39.27
60246;BME280;46107;53.356;-1.524;2023-05-27T04:46:34;100208.62;;;12.34;39.52
60246;BME280;46107;53.356;-1.524;2023-05-27T04:49:02;100207.73;;;12.51;38.95
60246;BME280;46107;53.356;-1.524;2023-05-27T04:51:30;100208.14;;;12.64;39.12
60246;BME280;46107;53.356;-1.524;2023-05-27T04:53:57;100212.96;;;11.95;39.93
60246;BME280;46107;53.356;-1.524;2023-05-27T04:56:25;100214.14;;;12.17;40.19
60246;BME280;46107;53.356;-1.524;2023-05-27T04:58:52;100214.57;;;12.35;39.60
60246;BME280;46107;53.356;-1.524;2023-05-27T05:01:19;100215.17;;;11.54;41.85
60246;BME280;46107;53.356;-1.524;2023-05-27T05:03:47;100219.72;;;12.44;40.06
60246;BME280;46107;53.356;-1.524;2023-05-27T05:06:15;100221.17;;;11.93;40.28
60246;BME280;46107;53.356;-1.524;2023-05-27T05:08:42;100222.03;;;12.43;40.18
60246;BME280;46107;53.356;-1.524;2023-05-27T05:11:10;100223.32;;;12.00;40.89
60246;BME280;46107;53.356;-1.524;2023-05-27T05:13:38;100225.45;;;11.87;41.05
60246;BME280;46107;53.356;-1.524;2023-05-27T05:16:06;100222.53;;;12.44;40.27
60246;BME280;46107;53.356;-1.524;2023-05-27T05:18:34;100223.43;;;12.36;39.73
60246;BME280;46107;53.356;-1.524;2023-05-27T05:21:01;100222.86;;;11.53;41.41
60246;BME280;46107;53.356;-1.524;2023-05-27T05:23:28;100220.36;;;12.65;38.94
60246;BME280;46107;53.356;-1.524;2023-05-27T05:25:56;100221.07;;;12.88;39.71
60246;BME280;46107;53.356;-1.524;2023-05-27T05:28:24;100218.57;;;11.99;40.67
60246;BME280;46107;53.356;-1.524;2023-05-27T05:30:51;100217.39;;;12.31;40.30
60246;BME280;46107;53.356;-1.524;2023-05-27T05:33:19;100212.02;;;12.91;38.80
60246;BME280;46107;53.356;-1.524;2023-05-27T05:35:46;100217.15;;;12.71;39.81
60246;BME280;46107;53.356;-1.524;2023-05-27T05:38:14;100216.25;;;13.21;38.30
60246;BME280;46107;53.356;-1.524;2023-05-27T05:40:41;100218.64;;;13.06;38.61
60246;BME280;46107;53.356;-1.524;2023-05-27T05:43:09;100219.13;;;13.20;38.13
60246;BME280;46107;53.356;-1.524;2023-05-27T05:45:36;100214.88;;;12.97;38.22
60246;BME280;46107;53.356;-1.524;2023-05-27T05:48:04;100217.71;;;13.55;37.53
60246;BME280;46107;53.356;-1.524;2023-05-27T05:50:31;100217.84;;;13.16;38.74
60246;BME280;46107;53.356;-1.524;2023-05-27T05:52:59;100212.94;;;12.92;39.14
60246;BME280;46107;53.356;-1.524;2023-05-27T05:55:27;100213.23;;;13.73;37.88
60246;BME280;46107;53.356;-1.524;2023-05-27T05:57:54;100211.59;;;12.42;40.16
60246;BME280;46107;53.356;-1.524;2023-05-27T06:00:22;100209.37;;;13.12;38.09
60246;BME280;46107;53.356;-1.524;2023-05-27T06:02:50;100205.32;;;13.37;38.50
60246;BME280;46107;53.356;-1.524;2023-05-27T06:05:17;100203.42;;;13.13;38.35
60246;BME280;46107;53.356;-1.524;2023-05-27T06:07:45;100202.27;;;13.22;39.06
60246;BME280;46107;53.356;-1.524;2023-05-27T06:10:12;100199.53;;;13.25;38.49
60246;BME280;46107;53.356;-1.524;2023-05-27T06:12:40;100199.88;;;13.57;38.00
60246;BME280;46107;53.356;-1.524;2023-05-27T06:15:08;100200.22;;;13.87;37.36
60246;BME280;46107;53.356;-1.524;2023-05-27T06:17:35;100199.55;;;13.63;38.09
60246;BME280;46107;53.356;-1.524;2023-05-27T06:20:03;100196.89;;;13.77;37.51
60246;BME280;46107;53.356;-1.524;2023-05-27T06:22:30;100191.52;;;14.10;37.29
60246;BME280;46107;53.356;-1.524;2023-05-27T06:24:57;100191.57;;;14.27;37.12
60246;BME280;46107;53.356;-1.524;2023-05-27T06:27:25;100193.27;;;14.05;37.30
60246;BME280;46107;53.356;-1.524;2023-05-27T06:29:52;100193.58;;;14.07;36.18
60246;BME280;46107;53.356;-1.524;2023-05-27T06:32:20;100195.21;;;13.95;38.30
60246;BME280;46107;53.356;-1.524;2023-05-27T06:34:48;100196.75;;;13.73;37.08
60246;BME280;46107;53.356;-1.524;2023-05-27T06:37:16;100194.38;;;14.26;37.50
60246;BME280;46107;53.356;-1.524;2023-05-27T06:39:43;100191.08;;;14.29;37.22
60246;BME280;46107;53.356;-1.524;2023-05-27T06:42:11;100191.71;;;14.08;37.60
60246;BME280;46107;53.356;-1.524;2023-05-27T06:44:38;100188.33;;;14.65;35.77
60246;BME280;46107;53.356;-1.524;2023-05-27T06:47:06;100187.87;;;15.93;34.79
60246;BME280;46107;53.356;-1.524;2023-05-27T06:49:33;100189.42;;;14.83;36.33
60246;BME280;46107;53.356;-1.524;2023-05-27T06:52:01;100194.01;;;15.66;34.77
60246;BME280;46107;53.356;-1.524;2023-05-27T06:54:29;100191.74;;;15.59;36.19
60246;BME280;46107;53.356;-1.524;2023-05-27T06:56:57;100189.36;;;15.56;35.25
60246;BME280;46107;53.356;-1.524;2023-05-27T06:59:24;100188.60;;;15.35;35.54
60246;BME280;46107;53.356;-1.524;2023-05-27T07:01:52;100185.39;;;15.85;35.71
60246;BME280;46107;53.356;-1.524;2023-05-27T07:04:19;100183.59;;;16.47;34.72
60246;BME280;46107;53.356;-1.524;2023-05-27T07:06:46;100178.28;;;16.76;35.57
60246;BME280;46107;53.356;-1.524;2023-05-27T07:09:14;100181.69;;;15.63;35.47
60246;BME280;46107;53.356;-1.524;2023-05-27T07:11:42;100179.54;;;16.47;33.05
60246;BME280;46107;53.356;-1.524;2023-05-27T07:14:10;100184.61;;;15.47;35.93
60246;BME280;46107;53.356;-1.524;2023-05-27T07:16:37;100180.10;;;16.53;34.69
60246;BME280;46107;53.356;-1.524;2023-05-27T07:19:05;100182.38;;;15.99;34.15
60246;BME280;46107;53.356;-1.524;2023-05-27T07:21:33;100178.09;;;16.65;34.57
60246;BME280;46107;53.356;-1.524;2023-05-27T07:24:01;100177.77;;;14.89;34.47
60246;BME280;46107;53.356;-1.524;2023-05-27T07:26:29;100176.20;;;14.76;36.06
60246;BME280;46107;53.356;-1.524;2023-05-27T07:28:57;100172.24;;;14.87;36.50
60246;BME280;46107;53.356;-1.524;2023-05-27T07:31:26;100178.93;;;16.46;34.84
60246;BME280;46107;53.356;-1.524;2023-05-27T07:33:53;100177.19;;;15.34;35.93
60246;BME280;46107;53.356;-1.524;2023-05-27T07:36:21;100171.55;;;14.24;37.33
60246;BME280;46107;53.356;-1.524;2023-05-27T07:38:48;100171.61;;;15.33;35.59
60246;BME280;46107;53.356;-1.524;2023-05-27T07:41:15;100172.19;;;16.00;35.05
60246;BME280;46107;53.356;-1.524;2023-05-27T07:43:42;100168.44;;;16.10;35.42
60246;BME280;46107;53.356;-1.524;2023-05-27T07:46:10;100168.36;;;15.91;36.20
60246;BME280;46107;53.356;-1.524;2023-05-27T07:48:37;100167.89;;;15.20;35.64
60246;BME280;46107;53.356;-1.524;2023-05-27T07:51:05;100161.53;;;16.14;34.79
60246;BME280;46107;53.356;-1.524;2023-05-27T07:53:32;100152.22;;;16.07;34.82
60246;BME280;46107;53.356;-1.524;2023-05-27T07:56:00;100162.50;;;14.79;34.95
60246;BME280;46107;53.356;-1.524;2023-05-27T07:58:28;100148.19;;;16.77;34.58
60246;BME280;46107;53.356;-1.524;2023-05-27T08:00:56;100152.14;;;15.72;35.73
60246;BME280;46107;53.356;-1.524;2023-05-27T08:03:24;100150.54;;;15.63;36.00
60246;BME280;46107;53.356;-1.524;2023-05-27T08:05:52;100143.36;;;16.24;35.60
60246;BME280;46107;53.356;-1.524;2023-05-27T08:08:20;100142.68;;;15.37;36.00
60246;BME280;46107;53.356;-1.524;2023-05-27T08:10:47;100141.86;;;14.43;36.73
60246;BME280;46107;53.356;-1.524;2023-05-27T08:13:14;100135.73;;;16.89;34.84
60246;BME280;46107;53.356;-1.524;2023-05-27T08:15:42;100136.37;;;17.06;34.55
60246;BME280;46107;53.356;-1.524;2023-05-27T08:18:10;100130.96;;;17.10;34.35
60246;BME280;46107;53.356;-1.524;2023-05-27T08:20:37;100129.85;;;16.66;34.11
60246;BME280;46107;53.356;-1.524;2023-05-27T08:23:05;100123.86;;;17.18;33.69
60246;BME280;46107;53.356;-1.524;2023-05-27T08:25:32;100124.57;;;16.10;36.33
60246;BME280;46107;53.356;-1.524;2023-05-27T08:28:00;100120.86;;;16.70;34.79
60246;BME280;46107;53.356;-1.524;2023-05-27T08:30:27;100122.75;;;16.54;34.82
60246;BME280;46107;53.356;-1.524;2023-05-27T08:32:55;100120.51;;;16.79;34.57
60246;BME280;46107;53.356;-1.524;2023-05-27T08:35:22;100117.96;;;17.35;34.75
60246;BME280;46107;53.356;-1.524;2023-05-27T08:37:49;100123.23;;;16.38;35.86
60246;BME280;46107;53.356;-1.524;2023-05-27T08:40:18;100118.85;;;16.47;34.45
60246;BME280;46107;53.356;-1.524;2023-05-27T08:42:47;100117.39;;;17.01;34.68
60246;BME280;46107;53.356;-1.524;2023-05-27T08:45:14;100115.41;;;16.42;34.54
60246;BME280;46107;53.356;-1.524;2023-05-27T08:47:42;100114.20;;;16.09;34.79
60246;BME280;46107;53.356;-1.524;2023-05-27T08:50:10;100117.12;;;16.40;34.87
60246;BME280;46107;53.356;-1.524;2023-05-27T08:52:42;100114.80;;;16.78;34.54
60246;BME280;46107;53.356;-1.524;2023-05-27T08:55:15;100116.74;;;16.12;34.84
60246;BME280;46107;53.356;-1.524;2023-05-27T08:57:50;100116.43;;;16.10;36.80
60246;BME280;46107;53.356;-1.524;2023-05-27T09:00:18;100115.03;;;16.04;34.59
60246;BME280;46107;53.356;-1.524;2023-05-27T09:02:46;100112.21;;;15.59;36.73
60246;BME280;46107;53.356;-1.524;2023-05-27T09:05:15;100109.98;;;15.05;37.88
60246;BME280;46107;53.356;-1.524;2023-05-27T09:07:43;100098.87;;;16.15;36.75
60246;BME280;46107;53.356;-1.524;2023-05-27T09:10:11;100091.72;;;17.22;34.16
60246;BME280;46107;53.356;-1.524;2023-05-27T09:12:42;100091.19;;;17.03;33.59
60246;BME280;46107;53.356;-1.524;2023-05-27T09:15:11;100085.14;;;17.65;35.04
60246;BME280;46107;53.356;-1.524;2023-05-27T09:17:40;100081.95;;;17.60;33.89
60246;BME280;46107;53.356;-1.524;2023-05-27T09:20:09;100079.46;;;18.00;33.46
60246;BME280;46107;53.356;-1.524;2023-05-27T09:22:36;100076.36;;;18.68;35.19
60246;BME280;46107;53.356;-1.524;2023-05-27T09:25:05;100069.94;;;18.62;32.97
60246;BME280;46107;53.356;-1.524;2023-05-27T09:27:33;100074.55;;;16.92;32.10
60246;BME280;46107;53.356;-1.524;2023-05-27T09:30:06;100067.78;;;18.27;33.62
60246;BME280;46107;53.356;-1.524;2023-05-27T09:32:34;100062.94;;;18.53;33.81
60246;BME280;46107;53.356;-1.524;2023-05-27T09:35:04;100065.94;;;17.31;34.49
60246;BME280;46107;53.356;-1.524;2023-05-27T09:37:34;100064.02;;;17.38;35.58
60246;BME280;46107;53.356;-1.524;2023-05-27T09:40:06;100055.92;;;18.72;31.80
60246;BME280;46107;53.356;-1.524;2023-05-27T09:42:44;100062.22;;;17.68;32.60
60246;BME280;46107;53.356;-1.524;2023-05-27T09:45:14;100050.47;;;18.35;31.84
60246;BME280;46107;53.356;-1.524;2023-05-27T09:47:43;100056.37;;;18.85;29.35
60246;BME280;46107;53.356;-1.524;2023-05-27T09:50:14;100051.30;;;18.36;34.22
60246;BME280;46107;53.356;-1.524;2023-05-27T09:52:44;100054.01;;;18.26;32.54
60246;BME280;46107;53.356;-1.524;2023-05-27T09:55:12;100052.80;;;17.98;31.51
60246;BME280;46107;53.356;-1.524;2023-05-27T09:57:40;100055.01;;;19.34;31.06
60246;BME280;46107;53.356;-1.524;2023-05-27T10:00:10;100053.07;;;19.16;32.80
60246;BME280;46107;53.356;-1.524;2023-05-27T10:02:40;100050.68;;;19.34;31.69
60246;BME280;46107;53.356;-1.524;2023-05-27T10:05:10;100049.03;;;18.30;31.99
60246;BME280;46107;53.356;-1.524;2023-05-27T10:07:39;100053.71;;;18.86;33.16
60246;BME280;46107;53.356;-1.524;2023-05-27T10:10:09;100051.63;;;18.69;32.47
60246;BME280;46107;53.356;-1.524;2023-05-27T10:12:38;100052.26;;;19.35;30.88
60246;BME280;46107;53.356;-1.524;2023-05-27T10:15:08;100051.97;;;18.85;32.30
60246;BME280;46107;53.356;-1.524;2023-05-27T10:17:47;100049.13;;;19.23;30.85
60246;BME280;46107;53.356;-1.524;2023-05-27T10:20:25;100049.76;;;18.88;34.00
60246;BME280;46107;53.356;-1.524;2023-05-27T10:22:53;100045.73;;;20.21;31.89
60246;BME280;46107;53.356;-1.524;2023-05-27T10:25:20;100048.84;;;19.26;31.28
60246;BME280;46107;53.356;-1.524;2023-05-27T10:27:48;100041.65;;;20.35;32.07
60246;BME280;46107;53.356;-1.524;2023-05-27T10:30:16;100042.61;;;17.55;32.39
60246;BME280;46107;53.356;-1.524;2023-05-27T10:32:46;100043.16;;;20.30;31.69
60246;BME280;46107;53.356;-1.524;2023-05-27T10:35:15;100040.52;;;19.16;32.72
60246;BME280;46107;53.356;-1.524;2023-05-27T10:37:43;100027.55;;;19.85;32.63
60246;BME280;46107;53.356;-1.524;2023-05-27T10:40:13;100028.16;;;19.42;30.89
60246;BME280;46107;53.356;-1.524;2023-05-27T10:42:59;100025.09;;;19.21;31.28
60246;BME280;46107;53.356;-1.524;2023-05-27T10:45:33;100013.00;;;19.44;31.02
60246;BME280;46107;53.356;-1.524;2023-05-27T10:48:00;100001.07;;;20.60;31.14
60246;BME280;46107;53.356;-1.524;2023-05-27T10:50:32;100000.06;;;20.48;33.43
60246;BME280;46107;53.356;-1.524;2023-05-27T10:52:59;99996.54;;;21.17;30.02
60246;BME280;46107;53.356;-1.524;2023-05-27T10:55:27;99995.29;;;19.51;31.78
60246;BME280;46107;53.356;-1.524;2023-05-27T10:57:55;99990.00;;;19.71;29.52
60246;BME280;46107;53.356;-1.524;2023-05-27T11:00:26;99986.18;;;20.67;31.35
60246;BME280;46107;53.356;-1.524;2023-05-27T11:02:54;99980.30;;;20.92;30.55
60246;BME280;46107;53.356;-1.524;2023-05-27T11:05:28;99976.27;;;19.36;31.19
60246;BME280;46107;53.356;-1.524;2023-05-27T11:07:55;99983.96;;;18.62;32.39
60246;BME280;46107;53.356;-1.524;2023-05-27T11:10:23;99972.12;;;20.03;33.06
60246;BME280;46107;53.356;-1.524;2023-05-27T11:12:50;99973.66;;;19.77;31.55
60246;BME280;46107;53.356;-1.524;2023-05-27T11:15:18;99974.62;;;19.77;32.29
60246;BME280;46107;53.356;-1.524;2023-05-27T11:17:46;99975.35;;;20.30;32.21
60246;BME280;46107;53.356;-1.524;2023-05-27T11:20:14;99971.75;;;20.49;29.08
60246;BME280;46107;53.356;-1.524;2023-05-27T11:22:49;99972.72;;;21.05;32.02
60246;BME280;46107;53.356;-1.524;2023-05-27T11:25:17;99970.04;;;20.70;27.93
60246;BME280;46107;53.356;-1.524;2023-05-27T11:27:45;99966.01;;;19.51;32.03
60246;BME280;46107;53.356;-1.524;2023-05-27T11:30:13;99960.22;;;20.07;30.30
60246;BME280;46107;53.356;-1.524;2023-05-27T11:32:42;99957.75;;;21.84;26.76
60246;BME280;46107;53.356;-1.524;2023-05-27T11:35:13;99954.35;;;21.69;29.62
60246;BME280;46107;53.356;-1.524;2023-05-27T11:37:40;99959.92;;;20.11;29.94
60246;BME280;46107;53.356;-1.524;2023-05-27T11:40:13;99953.29;;;20.58;28.69
60246;BME280;46107;53.356;-1.524;2023-05-27T11:42:44;99945.88;;;21.47;31.93
60246;BME280;46107;53.356;-1.524;2023-05-27T11:45:15;99940.64;;;22.60;28.91
60246;BME280;46107;53.356;-1.524;2023-05-27T11:47:44;99939.10;;;21.63;29.29
60246;BME280;46107;53.356;-1.524;2023-05-27T11:50:16;99930.36;;;21.30;28.97
60246;BME280;46107;53.356;-1.524;2023-05-27T11:52:51;99933.61;;;19.83;31.51
60246;BME280;46107;53.356;-1.524;2023-05-27T11:55:18;99933.37;;;20.14;30.61
60246;BME280;46107;53.356;-1.524;2023-05-27T11:57:46;99930.09;;;21.12;28.03
60246;BME280;46107;53.356;-1.524;2023-05-27T12:00:14;99925.63;;;21.13;27.88
60246;BME280;46107;53.356;-1.524;2023-05-27T12:02:42;99916.88;;;21.41;26.49
60246;BME280;46107;53.356;-1.524;2023-05-27T12:05:10;99912.87;;;21.81;26.08
60246;BME280;46107;53.356;-1.524;2023-05-27T12:07:38;99917.61;;;20.02;31.51
60246;BME280;46107;53.356;-1.524;2023-05-27T12:10:07;99913.61;;;20.15;28.61
60246;BME280;46107;53.356;-1.524;2023-05-27T12:12:35;99910.87;;;21.53;29.53
60246;BME280;46107;53.356;-1.524;2023-05-27T12:15:04;99908.37;;;21.77;27.27
60246;BME280;46107;53.356;-1.524;2023-05-27T12:17:32;99910.88;;;21.01;30.99
60246;BME280;46107;53.356;-1.524;2023-05-27T12:20:01;99900.48;;;21.51;26.51
60246;BME280;46107;53.356;-1.524;2023-05-27T12:22:28;99898.79;;;21.33;26.16
60246;BME280;46107;53.356;-1.524;2023-05-27T12:24:55;99897.86;;;20.39;27.81
60246;BME280;46107;53.356;-1.524;2023-05-27T12:27:23;99895.25;;;20.17;27.50
60246;BME280;46107;53.356;-1.524;2023-05-27T12:29:50;99885.49;;;21.64;27.32
60246;BME280;46107;53.356;-1.524;2023-05-27T12:32:18;99879.49;;;21.30;27.45
60246;BME280;46107;53.356;-1.524;2023-05-27T12:34:45;99878.34;;;20.94;29.46
60246;BME280;46107;53.356;-1.524;2023-05-27T12:37:12;99882.82;;;20.48;29.01
60246;BME280;46107;53.356;-1.524;2023-05-27T12:39:40;99875.26;;;21.88;26.67
60246;BME280;46107;53.356;-1.524;2023-05-27T12:42:09;99870.06;;;21.67;28.44
60246;BME280;46107;53.356;-1.524;2023-05-27T12:44:36;99871.34;;;22.06;27.88
60246;BME280;46107;53.356;-1.524;2023-05-27T12:47:04;99870.86;;;20.69;28.51